createdAt,value
2019-02-22T00:00:03.632Z,21.08
2019-02-22T00:01:03.153Z,20.63
2019-02-22T00:02:03.744Z,21.05
2019-02-22T00:03:02.969Z,20.42
2019-02-22T00:04:03.130Z,20.42
2019-02-22T00:05:03.546Z,21.48
2019-02-22T00:06:03.185Z,23.13
2019-02-22T00:07:02.853Z,23.13
2019-02-22T00:08:03.180Z,22.81
2019-02-22T00:09:02.867Z,22.04
2019-02-22T00:10:03.031Z,22.09
2019-02-22T00:11:03.631Z,21.91
2019-02-22T00:12:03.624Z,21.17
2019-02-22T00:13:03.615Z,20.76
2019-02-22T00:14:03.172Z,21.56
2019-02-22T00:15:03.449Z,21.35
2019-02-22T00:16:02.759Z,21.83
2019-02-22T00:17:03.303Z,21.75
2019-02-22T00:18:02.796Z,22.16
2019-02-22T00:19:03.172Z,21.32
2019-02-22T00:20:02.855Z,22.11
2019-02-22T00:21:03.182Z,21.38
2019-02-22T00:22:02.853Z,20.79
2019-02-22T00:23:03.826Z,22.36
2019-02-22T00:24:02.835Z,21.73
2019-02-22T00:25:03.591Z,22.42
2019-02-22T00:26:02.983Z,22.58
2019-02-22T00:27:03.414Z,23.34
2019-02-22T00:28:03.028Z,23.72
2019-02-22T00:29:03.543Z,21.89
2019-02-22T00:30:03.158Z,23.45
2019-02-22T00:31:03.177Z,22.68
2019-02-22T00:32:02.870Z,22.2
2019-02-22T00:33:03.101Z,22.86
2019-02-22T00:34:03.548Z,22.32
2019-02-22T00:35:02.970Z,20.81
2019-02-22T00:36:03.013Z,22.77
2019-02-22T00:37:04.049Z,23.59
2019-02-22T00:38:03.248Z,22.28
2019-02-22T00:39:02.797Z,23.49
2019-02-22T00:40:03.191Z,22.5
2019-02-22T00:41:03.707Z,23.12
2019-02-22T00:42:03.027Z,21.45
2019-02-22T00:43:02.719Z,22.91
2019-02-22T00:44:03.373Z,24.21
2019-02-22T00:45:02.940Z,23.68
2019-02-22T00:46:03.176Z,22.94
2019-02-22T00:47:02.971Z,21.88
2019-02-22T00:48:03.316Z,22.78
2019-02-22T00:49:03.601Z,20.7
2019-02-22T00:50:03.076Z,23.49
2019-02-22T00:51:03.882Z,22.89
2019-02-22T00:52:03.182Z,22.64
2019-02-22T00:53:03.653Z,23.63
2019-02-22T00:54:03.171Z,23.63
2019-02-22T00:55:03.658Z,22.95
2019-02-22T00:56:03.147Z,22.95
2019-02-22T00:57:02.926Z,23.41
2019-02-22T00:58:03.537Z,21.49
2019-02-22T00:59:02.870Z,21.49
2019-02-22T01:00:04.291Z,24
2019-02-22T01:01:03.195Z,23.27
2019-02-22T01:02:02.915Z,22.15
2019-02-22T01:03:03.255Z,22.79
2019-02-22T01:04:02.677Z,22.84
2019-02-22T01:05:03.660Z,24.69
2019-02-22T01:06:02.782Z,25.59
2019-02-22T01:07:03.359Z,23.62
2019-02-22T01:08:03.209Z,23.08
2019-02-22T01:09:03.234Z,24.25
2019-02-22T01:10:02.938Z,23.14
2019-02-22T01:11:03.419Z,23.36
2019-02-22T01:12:03.007Z,22.88
2019-02-22T01:13:03.283Z,24.49
2019-02-22T01:14:02.729Z,21.65
2019-02-22T01:15:02.858Z,23.45
2019-02-22T01:16:02.694Z,23.62
2019-02-22T01:17:02.932Z,24.78
2019-02-22T01:18:03.641Z,25.45
2019-02-22T01:19:02.977Z,25.76
2019-02-22T01:20:03.702Z,26.23
2019-02-22T01:21:03.046Z,25.26
2019-02-22T01:22:03.329Z,24.95
2019-02-22T01:23:03.266Z,27.34
2019-02-22T01:24:03.097Z,26.32
2019-02-22T01:25:03.403Z,25.42
2019-02-22T01:26:03.043Z,27.42
2019-02-22T01:27:03.587Z,26.29
2019-02-22T01:28:03.105Z,27.85
2019-02-22T01:29:03.458Z,28.34
2019-02-22T01:30:03.227Z,27.58
2019-02-22T01:31:03.373Z,25.98
2019-02-22T01:32:03.211Z,27.19
2019-02-22T01:33:03.729Z,27.56
2019-02-22T01:34:03.310Z,28.33
2019-02-22T01:35:03.051Z,29.66
2019-02-22T01:36:03.489Z,28.88
2019-02-22T01:37:02.838Z,28.76
2019-02-22T01:38:03.223Z,29.94
2019-02-22T01:39:03.373Z,29.89
2019-02-22T01:40:03.621Z,28.56
2019-02-22T01:41:02.687Z,31.3
2019-02-22T01:42:03.448Z,31.3
2019-02-22T01:43:03.382Z,29.78
2019-02-22T01:44:03.267Z,29.78
2019-02-22T01:45:03.564Z,32.02
2019-02-22T01:46:03.066Z,32.02
2019-02-22T01:47:03.482Z,31.34
2019-02-22T01:48:03.318Z,30.44
2019-02-22T01:49:03.672Z,29.51
2019-02-22T01:50:03.176Z,32.36
2019-02-22T01:51:02.966Z,30.54
2019-02-22T01:52:03.139Z,30.6
2019-02-22T01:53:03.376Z,32.42
2019-02-22T01:54:02.567Z,31.41
2019-02-22T01:55:03.289Z,32.67
2019-02-22T01:56:03.802Z,33.83
2019-02-22T01:57:03.127Z,31.89
2019-02-22T01:58:03.007Z,30.06
2019-02-22T01:59:03.392Z,33.32
2019-02-22T02:00:03.035Z,31.62
2019-02-22T02:01:03.853Z,33.13
2019-02-22T02:02:03.223Z,33.19
2019-02-22T02:03:03.494Z,32.53
2019-02-22T02:04:02.826Z,31.68
2019-02-22T02:05:03.321Z,32.63
2019-02-22T02:06:03.331Z,32.65
2019-02-22T02:07:02.593Z,32.48
2019-02-22T02:08:03.134Z,33.62
2019-02-22T02:09:02.690Z,32.31
2019-02-22T02:10:03.064Z,32.24
2019-02-22T02:11:02.592Z,32.15
2019-02-22T02:12:02.794Z,32.01
2019-02-22T02:13:03.253Z,32.27
2019-02-22T02:14:02.877Z,31.66
2019-02-22T02:15:03.382Z,29.91
2019-02-22T02:16:03.642Z,32.39
2019-02-22T02:17:03.442Z,30.92
2019-02-22T02:18:03.010Z,32.52
2019-02-22T02:19:02.743Z,31.22
2019-02-22T02:20:03.106Z,31.68
2019-02-22T02:21:03.514Z,31.15
2019-02-22T02:22:02.853Z,34.7
2019-02-22T02:23:03.618Z,34.44
2019-02-22T02:24:03.106Z,32.66
2019-02-22T02:25:03.482Z,32.91
2019-02-22T02:26:02.845Z,31.07
2019-02-22T02:27:03.045Z,33.68
2019-02-22T02:28:03.383Z,34.06
2019-02-22T02:29:03.141Z,35.61
2019-02-22T02:30:03.691Z,32.99
2019-02-22T02:31:03.213Z,34.71
2019-02-22T02:32:02.740Z,32.65
2019-02-22T02:33:03.102Z,33.44
2019-02-22T02:34:02.893Z,33.44
2019-02-22T02:35:03.161Z,31.78
2019-02-22T02:36:03.531Z,30.79
2019-02-22T02:37:02.888Z,30.37
2019-02-22T02:38:03.697Z,33.34
2019-02-22T02:39:02.908Z,32.66
2019-02-22T02:40:04.233Z,31.3
2019-02-22T02:41:11.346Z,30.78
2019-02-22T02:42:03.363Z,31.32
2019-02-22T02:43:03.166Z,32.04
2019-02-22T02:44:03.461Z,30.74
2019-02-22T02:45:02.925Z,33.21
2019-02-22T02:46:03.718Z,32.16
2019-02-22T02:47:02.862Z,32.54
2019-02-22T02:48:03.032Z,31.24
2019-02-22T02:49:03.533Z,32.26
2019-02-22T02:50:03.535Z,31.18
2019-02-22T02:51:02.620Z,31.61
2019-02-22T02:52:03.181Z,31.7
2019-02-22T02:53:03.812Z,32.14
2019-02-22T02:54:02.849Z,31.11
2019-02-22T02:55:03.567Z,31.98
2019-02-22T02:56:03.099Z,32.18
2019-02-22T02:57:03.758Z,31.29
2019-02-22T02:58:03.315Z,32.77
2019-02-22T02:59:03.584Z,31.76
2019-02-22T03:00:03.179Z,31.58
2019-02-22T03:01:03.673Z,34.49
2019-02-22T03:02:02.778Z,32.16
2019-02-22T03:03:03.174Z,32.52
2019-02-22T03:04:02.819Z,31.73
2019-02-22T03:05:03.491Z,31.05
2019-02-22T03:06:03.201Z,31.5
2019-02-22T03:07:03.700Z,32.16
2019-02-22T03:08:03.058Z,31.21
2019-02-22T03:09:03.711Z,33.35
2019-02-22T03:10:03.105Z,30.98
2019-02-22T03:11:03.659Z,30.84
2019-02-22T03:12:02.693Z,32.36
2019-02-22T03:13:03.382Z,31.95
2019-02-22T03:14:03.125Z,32.6
2019-02-22T03:15:03.524Z,31.85
2019-02-22T03:16:03.376Z,31.49
2019-02-22T03:17:02.731Z,33.37
2019-02-22T03:18:03.318Z,31.05
2019-02-22T03:19:03.674Z,33.35
2019-02-22T03:20:03.438Z,32.26
2019-02-22T03:21:02.923Z,32.59
2019-02-22T03:22:03.659Z,32.59
2019-02-22T03:23:02.828Z,32.02
2019-02-22T03:24:03.620Z,32.11
2019-02-22T03:25:03.198Z,32.11
2019-02-22T03:26:03.235Z,34.51
2019-02-22T03:27:03.375Z,31.12
2019-02-22T03:28:02.696Z,31.63
2019-02-22T03:29:02.734Z,32.4
2019-02-22T03:30:03.593Z,32.51
2019-02-22T03:31:02.799Z,32.94
2019-02-22T03:32:03.600Z,33.93
2019-02-22T03:33:03.131Z,33.14
2019-02-22T03:34:03.793Z,32.84
2019-02-22T03:35:03.461Z,33.44
2019-02-22T03:36:02.849Z,33.2
2019-02-22T03:37:03.293Z,32.84
2019-02-22T03:38:02.677Z,31.39
2019-02-22T03:39:03.402Z,33.68
2019-02-22T03:40:02.879Z,34.63
2019-02-22T03:41:03.199Z,32.99
2019-02-22T03:42:03.559Z,35.45
2019-02-22T03:43:02.967Z,33.6
2019-02-22T03:44:03.446Z,33.15
2019-02-22T03:45:02.715Z,34.19
2019-02-22T03:46:02.891Z,33.67
2019-02-22T03:47:03.017Z,31.8
2019-02-22T03:48:03.411Z,30.75
2019-02-22T03:49:02.996Z,33.76
2019-02-22T03:50:03.481Z,36.72
2019-02-22T03:51:03.623Z,35.53
2019-02-22T03:52:03.440Z,32.53
2019-02-22T03:53:03.075Z,33.64
2019-02-22T03:54:03.194Z,32.92
2019-02-22T03:55:02.778Z,32.45
2019-02-22T03:56:03.620Z,32.41
2019-02-22T03:57:02.932Z,31.54
2019-02-22T03:58:03.619Z,33.42
2019-02-22T03:59:02.933Z,33.75
2019-02-22T04:00:03.598Z,34.51
2019-02-22T04:01:02.650Z,33.74
2019-02-22T04:02:03.417Z,35.35
2019-02-22T04:03:03.542Z,35.36
2019-02-22T04:04:03.232Z,35.74
2019-02-22T04:05:03.324Z,36.11
2019-02-22T04:06:03.354Z,34.89
2019-02-22T04:07:03.359Z,34.87
2019-02-22T04:08:02.793Z,33.45
2019-02-22T04:09:03.010Z,34.08
2019-02-22T04:10:02.694Z,34.08
2019-02-22T04:11:03.001Z,35.01
2019-02-22T04:12:03.682Z,34.2
2019-02-22T04:13:02.934Z,34.2
2019-02-22T04:14:03.738Z,34.88
2019-02-22T04:15:02.841Z,35.55
2019-02-22T04:16:03.341Z,35.55
2019-02-22T04:17:02.774Z,37.52
2019-02-22T04:18:03.568Z,33.37
2019-02-22T04:19:03.428Z,36.86
2019-02-22T04:20:03.003Z,32.51
2019-02-22T04:21:03.311Z,35.79
2019-02-22T04:22:03.047Z,35.22
2019-02-22T04:23:03.657Z,37.17
2019-02-22T04:24:02.920Z,35.98
2019-02-22T04:25:03.833Z,34.95
2019-02-22T04:26:03.079Z,36.79
2019-02-22T04:27:03.614Z,35.46
2019-02-22T04:28:02.956Z,37.29
2019-02-22T04:29:03.342Z,36.25
2019-02-22T04:30:02.861Z,37.1
2019-02-22T04:31:03.345Z,37.22
2019-02-22T04:32:02.972Z,35.54
2019-02-22T04:33:03.469Z,37.08
2019-02-22T04:34:03.523Z,36.79
2019-02-22T04:35:03.407Z,38.34
2019-02-22T04:36:02.822Z,37.29
2019-02-22T04:37:03.553Z,35.66
2019-02-22T04:38:03.368Z,38.91
2019-02-22T04:39:03.604Z,38.41
2019-02-22T04:40:03.301Z,36.08
2019-02-22T04:41:03.728Z,37.56
2019-02-22T04:42:02.936Z,37.55
2019-02-22T04:43:03.653Z,37.45
2019-02-22T04:44:03.023Z,36.96
2019-02-22T04:45:03.639Z,37.83
2019-02-22T04:46:03.043Z,39.61
2019-02-22T04:47:03.229Z,39.02
2019-02-22T04:48:02.882Z,36.5
2019-02-22T04:49:03.548Z,36.46
2019-02-22T04:50:02.927Z,38.06
2019-02-22T04:51:03.283Z,38.27
2019-02-22T04:52:02.565Z,37.41
2019-02-22T04:53:03.137Z,39.85
2019-02-22T04:54:03.706Z,39.79
2019-02-22T04:55:03.237Z,39.75
2019-02-22T04:56:02.709Z,40.01
2019-02-22T04:57:03.082Z,37.43
2019-02-22T04:58:03.462Z,39.97
2019-02-22T04:59:03.908Z,37.24
2019-02-22T05:00:03.095Z,38.16
2019-02-22T05:01:02.779Z,40.62
2019-02-22T05:02:03.410Z,40.62
2019-02-22T05:03:03.674Z,42.59
2019-02-22T05:04:03.168Z,40.15
2019-02-22T05:05:03.615Z,40.15
2019-02-22T05:06:03.053Z,42.05
2019-02-22T05:07:03.612Z,40.75
2019-02-22T05:08:03.247Z,40.75
2019-02-22T05:09:03.793Z,41
2019-02-22T05:10:03.068Z,40.64
2019-02-22T05:11:03.482Z,43.99
2019-02-22T05:12:11.334Z,40.08
2019-02-22T05:13:03.275Z,38.14
2019-02-22T05:14:03.473Z,43
2019-02-22T05:15:13.129Z,40.61
2019-02-22T05:16:02.733Z,42.34
2019-02-22T05:17:03.407Z,40.81
2019-02-22T05:18:03.746Z,38.76
2019-02-22T05:19:03.368Z,37.48
2019-02-22T05:20:03.655Z,39.72
2019-02-22T05:21:03.099Z,41.58
2019-02-22T05:22:03.292Z,37.25
2019-02-22T05:23:07.390Z,37.72
2019-02-22T05:24:03.507Z,40.29
2019-02-22T05:25:03.253Z,36.78
2019-02-22T05:26:03.749Z,38.32
2019-02-22T05:27:03.460Z,41.12
2019-02-22T05:28:02.858Z,40.06
2019-02-22T05:29:03.246Z,39.57
2019-02-22T05:30:02.768Z,38.83
2019-02-22T05:31:03.123Z,38.9
2019-02-22T05:32:02.532Z,38.49
2019-02-22T05:33:03.499Z,42.08
2019-02-22T05:34:02.912Z,37.69
2019-02-22T05:35:03.623Z,38.41
2019-02-22T05:36:02.987Z,40.29
2019-02-22T05:37:03.222Z,39.74
2019-02-22T05:38:02.751Z,38.87
2019-02-22T05:39:03.282Z,38.53
2019-02-22T05:40:03.275Z,38.12
2019-02-22T05:41:03.296Z,38
2019-02-22T05:42:02.836Z,37.26
2019-02-22T05:43:03.502Z,37.01
2019-02-22T05:44:03.142Z,37.82
2019-02-22T05:45:03.462Z,39.24
2019-02-22T05:46:03.285Z,38.01
2019-02-22T05:47:03.346Z,40.07
2019-02-22T05:48:03.011Z,39.25
2019-02-22T05:49:03.246Z,41.98
2019-02-22T05:50:03.333Z,41.57
2019-02-22T05:51:03.420Z,41.57
2019-02-22T05:52:02.794Z,40.55
2019-02-22T05:53:03.828Z,40.55
2019-02-22T05:54:03.333Z,41.66
2019-02-22T05:55:03.011Z,38.32
2019-02-22T05:56:03.560Z,38.32
2019-02-22T05:57:03.031Z,39.75
2019-02-22T05:58:03.585Z,38.95
2019-02-22T05:59:02.890Z,38.26
2019-02-22T06:00:03.498Z,39.55
2019-02-22T06:01:02.552Z,39.13
2019-02-22T06:02:03.073Z,41.16
2019-02-22T06:03:02.990Z,38.94
2019-02-22T06:04:03.445Z,40.24
2019-02-22T06:05:02.728Z,36.95
2019-02-22T06:06:03.175Z,37.26
2019-02-22T06:07:02.936Z,36.35
2019-02-22T06:08:03.251Z,38.24
2019-02-22T06:09:03.632Z,40.45
2019-02-22T06:10:02.915Z,39.4
2019-02-22T06:11:02.745Z,40.51
2019-02-22T06:12:03.518Z,39.37
2019-02-22T06:13:02.763Z,38.22
2019-02-22T06:14:03.497Z,36.61
2019-02-22T06:15:03.174Z,37.83
2019-02-22T06:16:03.424Z,39.16
2019-02-22T06:17:14.888Z,37.03
2019-02-22T06:18:04.022Z,40.55
2019-02-22T06:19:02.826Z,36.26
2019-02-22T06:20:03.700Z,38.48
2019-02-22T06:21:03.521Z,37.29
2019-02-22T06:22:02.979Z,37.88
2019-02-22T06:23:02.785Z,37.41
2019-02-22T06:24:03.710Z,38.68
2019-02-22T06:25:02.898Z,36.21
2019-02-22T06:26:03.445Z,38.6
2019-02-22T06:27:03.635Z,36.68
2019-02-22T06:28:03.545Z,37.14
2019-02-22T06:29:02.698Z,37.59
2019-02-22T06:30:03.986Z,37.61
2019-02-22T06:31:03.191Z,36.75
2019-02-22T06:32:02.589Z,35.21
2019-02-22T06:33:03.248Z,35.78
2019-02-22T06:34:02.838Z,36.12
2019-02-22T06:35:03.340Z,36.87
2019-02-22T06:36:02.966Z,36.76
2019-02-22T06:37:03.346Z,36.14
2019-02-22T06:38:02.948Z,36.01
2019-02-22T06:39:02.853Z,36.01
2019-02-22T06:40:03.678Z,35.99
2019-02-22T06:41:02.915Z,37.91
2019-02-22T06:42:03.625Z,37.91
2019-02-22T06:43:03.580Z,36.04
2019-02-22T06:44:02.958Z,36.91
2019-02-22T06:45:02.925Z,36.91
2019-02-22T06:46:03.015Z,38.38
2019-02-22T06:47:02.995Z,34.8
2019-02-22T06:48:03.159Z,37.75
2019-02-22T06:49:03.094Z,38.53
2019-02-22T06:50:02.925Z,37.56
2019-02-22T06:51:02.817Z,34.42
2019-02-22T06:52:03.275Z,37.89
2019-02-22T06:53:02.851Z,38.09
2019-02-22T06:54:03.389Z,36.53
2019-02-22T06:55:03.203Z,36.73
2019-02-22T06:56:03.247Z,37.71
2019-02-22T06:57:02.817Z,37.09
2019-02-22T06:58:03.381Z,37.21
2019-02-22T06:59:03.564Z,35.51
2019-02-22T07:00:03.082Z,36.46
2019-02-22T07:01:03.353Z,35.16
2019-02-22T07:02:03.620Z,36.14
2019-02-22T07:03:03.182Z,36.29
2019-02-22T07:04:03.800Z,36.82
2019-02-22T07:05:02.932Z,36.59
2019-02-22T07:06:02.600Z,35.75
2019-02-22T07:07:03.155Z,36.44
2019-02-22T07:08:03.149Z,36.47
2019-02-22T07:09:03.357Z,36.32
2019-02-22T07:10:02.789Z,37.79
2019-02-22T07:11:03.434Z,33.82
2019-02-22T07:12:02.717Z,36.1
2019-02-22T07:13:03.165Z,33.81
2019-02-22T07:14:02.873Z,36.78
2019-02-22T07:15:02.879Z,36.95
2019-02-22T07:16:03.309Z,36.18
2019-02-22T07:17:03.364Z,35.87
2019-02-22T07:18:02.886Z,33.99
2019-02-22T07:19:03.827Z,35.31
2019-02-22T07:20:02.909Z,34.4
2019-02-22T07:21:03.356Z,33.5
2019-02-22T07:22:02.752Z,33.89
2019-02-22T07:23:03.319Z,34.18
2019-02-22T07:24:03.845Z,33.34
2019-02-22T07:25:02.765Z,33.78
2019-02-22T07:26:03.689Z,33.21
2019-02-22T07:27:03.186Z,34.98
2019-02-22T07:28:03.521Z,36.3
2019-02-22T07:29:03.249Z,34.05
2019-02-22T07:30:03.468Z,34.05
2019-02-22T07:31:02.806Z,36.49
2019-02-22T07:32:38.876Z,32.93
2019-02-22T07:33:02.790Z,32.93
2019-02-22T07:34:02.927Z,35.15
2019-02-22T07:35:03.228Z,33.71
2019-02-22T07:36:03.369Z,34.18
2019-02-22T07:37:03.171Z,35.83
2019-02-22T07:38:03.508Z,34.51
2019-02-22T07:39:03.276Z,32.36
2019-02-22T07:40:03.593Z,32.98
2019-02-22T07:41:02.926Z,32.46
2019-02-22T07:42:02.980Z,33.16
2019-02-22T07:43:08.460Z,34.12
2019-02-22T07:44:03.152Z,33.09
2019-02-22T07:45:03.006Z,33.07
2019-02-22T07:46:03.409Z,33.12
2019-02-22T07:47:03.604Z,32.09
2019-02-22T07:48:03.288Z,33.04
2019-02-22T07:49:02.678Z,33.2
2019-02-22T07:50:03.353Z,33.61
2019-02-22T07:51:02.894Z,32.96
2019-02-22T07:52:03.501Z,32.95
2019-02-22T07:53:02.928Z,33.89
2019-02-22T07:54:03.335Z,32.29
2019-02-22T07:55:02.969Z,32.92
2019-02-22T07:56:03.202Z,33.53
2019-02-22T07:57:02.914Z,32.54
2019-02-22T07:58:03.032Z,32.04
2019-02-22T07:59:03.663Z,32.5
2019-02-22T08:00:02.913Z,35.53
2019-02-22T08:01:03.710Z,33.01
2019-02-22T08:02:03.385Z,34.39
2019-02-22T08:03:02.954Z,33.59
2019-02-22T08:04:03.369Z,33.58
2019-02-22T08:05:02.681Z,31.91
2019-02-22T08:06:03.464Z,32.41
2019-02-22T08:07:02.910Z,33.99
2019-02-22T08:08:03.474Z,33.86
2019-02-22T08:09:03.175Z,34.97
2019-02-22T08:10:03.515Z,32.99
2019-02-22T08:11:03.066Z,34.99
2019-02-22T08:12:03.630Z,32.05
2019-02-22T08:13:02.516Z,32.92
2019-02-22T08:14:03.230Z,33.32
2019-02-22T08:15:03.667Z,31.98
2019-02-22T08:16:02.962Z,32.94
2019-02-22T08:17:03.636Z,32.76
2019-02-22T08:18:03.439Z,32.64
2019-02-22T08:19:03.285Z,32.64
2019-02-22T08:20:03.590Z,33.3
2019-02-22T08:21:03.269Z,33.3
2019-02-22T08:22:03.775Z,30.85
2019-02-22T08:23:02.928Z,33.74
2019-02-22T08:24:03.754Z,31.68
2019-02-22T08:25:02.839Z,33.14
2019-02-22T08:26:03.339Z,32.16
2019-02-22T08:27:03.592Z,35.91
2019-02-22T08:28:03.580Z,32.74
2019-02-22T08:29:03.399Z,31.07
2019-02-22T08:30:03.552Z,33.2
2019-02-22T08:31:03.061Z,33.95
2019-02-22T08:32:03.629Z,34.84
2019-02-22T08:33:03.228Z,33.89
2019-02-22T08:34:03.336Z,32.83
2019-02-22T08:35:03.051Z,33.49
2019-02-22T08:36:03.111Z,33.04
2019-02-22T08:37:03.440Z,31.09
2019-02-22T08:38:02.907Z,32.14
2019-02-22T08:39:03.502Z,32.14
2019-02-22T08:40:03.017Z,34.18
2019-02-22T08:41:03.635Z,32.14
2019-02-22T08:42:03.157Z,35.04
2019-02-22T08:43:03.665Z,33.45
2019-02-22T08:44:03.160Z,32.34
2019-02-22T08:45:03.243Z,33.59
2019-02-22T08:46:03.678Z,33.38
2019-02-22T08:47:03.568Z,35.62
2019-02-22T08:48:02.977Z,34.08
2019-02-22T08:49:03.044Z,31.54
2019-02-22T08:50:03.169Z,32.94
2019-02-22T08:51:03.193Z,31.74
2019-02-22T08:52:03.226Z,31.94
2019-02-22T08:53:03.814Z,31.21
2019-02-22T08:54:03.556Z,33.48
2019-02-22T08:55:03.663Z,32.73
2019-02-22T08:56:03.353Z,32.74
2019-02-22T08:57:03.613Z,32.65
2019-02-22T08:58:03.253Z,33.02
2019-02-22T08:59:02.919Z,31.86
2019-02-22T09:00:03.694Z,32.46
2019-02-22T09:01:02.886Z,30.63
2019-02-22T09:02:03.466Z,33.71
2019-02-22T09:03:02.988Z,34.64
2019-02-22T09:04:03.259Z,33.45
2019-02-22T09:05:02.853Z,34.59
2019-02-22T09:06:03.045Z,31.66
2019-02-22T09:07:03.543Z,31.66
2019-02-22T09:08:02.907Z,35.44
2019-02-22T09:09:03.244Z,32.97
2019-02-22T09:10:03.442Z,32.97
2019-02-22T09:11:03.150Z,32.26
2019-02-22T09:12:03.587Z,33.4
2019-02-22T09:13:02.946Z,31.98
2019-02-22T09:14:03.414Z,33.66
2019-02-22T09:15:03.187Z,34.46
2019-02-22T09:16:03.568Z,31.97
2019-02-22T09:17:03.113Z,31.97
2019-02-22T09:18:03.100Z,33.68
2019-02-22T09:19:03.516Z,34.29
2019-02-22T09:20:02.935Z,31.61
2019-02-22T09:21:03.061Z,32.28
2019-02-22T09:22:03.572Z,31.11
2019-02-22T09:23:02.936Z,34.32
2019-02-22T09:24:03.667Z,33.06
2019-02-22T09:25:03.613Z,31.79
2019-02-22T09:26:03.598Z,30.84
2019-02-22T09:27:03.360Z,32.44
2019-02-22T09:28:03.365Z,31.11
2019-02-22T09:29:03.293Z,32.29
2019-02-22T09:30:02.751Z,30.45
2019-02-22T09:31:03.112Z,31.02
2019-02-22T09:32:03.688Z,28.75
2019-02-22T09:33:03.147Z,27.22
2019-02-22T09:34:03.258Z,31.31
2019-02-22T09:35:03.009Z,29.51
2019-02-22T09:36:03.376Z,27.2
2019-02-22T09:37:03.570Z,27.35
2019-02-22T09:38:03.588Z,28.39
2019-02-22T09:39:02.768Z,28.56
2019-02-22T09:40:03.171Z,29.45
2019-02-22T09:41:03.061Z,25.52
2019-02-22T09:42:03.319Z,27.79
2019-02-22T09:43:03.118Z,29.21
2019-02-22T09:44:03.355Z,27.1
2019-02-22T09:45:03.137Z,26.22
2019-02-22T09:46:03.386Z,26.59
2019-02-22T09:47:02.540Z,26.41
2019-02-22T09:48:03.042Z,26.41
2019-02-22T09:49:02.682Z,25.62
2019-02-22T09:50:03.662Z,28.72
2019-02-22T09:51:03.699Z,26.71
2019-02-22T09:52:02.793Z,25.92
2019-02-22T09:53:03.493Z,26.28
2019-02-22T09:54:02.864Z,25.64
2019-02-22T09:55:03.742Z,25.64
2019-02-22T09:56:03.138Z,25.82
2019-02-22T09:57:02.682Z,26.17
2019-02-22T09:58:03.350Z,26.17
2019-02-22T09:59:03.105Z,25.66
2019-02-22T10:00:03.485Z,25.66
2019-02-22T10:01:02.789Z,25.31
2019-02-22T10:02:03.337Z,22.24
2019-02-22T10:03:03.271Z,26.4
2019-02-22T10:04:03.167Z,25.72
2019-02-22T10:05:03.160Z,25.96
2019-02-22T10:06:03.085Z,24.94
2019-02-22T10:07:03.634Z,26.44
2019-02-22T10:08:03.046Z,27.99
2019-02-22T10:09:04.163Z,25.91
2019-02-22T10:10:03.213Z,26.26
2019-02-22T10:11:03.312Z,25.04
2019-02-22T10:12:03.154Z,24.54
2019-02-22T10:13:03.381Z,25
2019-02-22T10:14:07.117Z,25.12
2019-02-22T10:15:03.501Z,24.79
2019-02-22T10:16:03.076Z,25.34
2019-02-22T10:17:04.219Z,25.89
2019-02-22T10:18:02.488Z,25.24
2019-02-22T10:19:03.156Z,25.28
2019-02-22T10:20:03.736Z,25.46
2019-02-22T10:21:03.490Z,25.19
2019-02-22T10:22:03.532Z,25.4
2019-02-22T10:23:03.036Z,24.28
2019-02-22T10:24:03.350Z,26.24
2019-02-22T10:25:03.025Z,24.49
2019-02-22T10:26:03.242Z,24.85
2019-02-22T10:27:03.629Z,23.61
2019-02-22T10:28:03.259Z,24.97
2019-02-22T10:29:03.719Z,23.96
2019-02-22T10:30:03.230Z,22.35
2019-02-22T10:31:02.766Z,23.18
2019-02-22T10:32:03.022Z,23.19
2019-02-22T10:33:03.525Z,24.06
2019-02-22T10:34:02.912Z,23.18
2019-02-22T10:35:03.447Z,24.43
2019-02-22T10:36:03.412Z,23.47
2019-02-22T10:37:03.015Z,21.74
2019-02-22T10:38:03.750Z,22.39
2019-02-22T10:39:03.139Z,24.1
2019-02-22T10:40:03.210Z,20.82
2019-02-22T10:41:03.204Z,23.21
2019-02-22T10:42:03.328Z,23.78
2019-02-22T10:43:03.053Z,24.34
2019-02-22T10:44:03.539Z,22.22
2019-02-22T10:45:02.715Z,21.42
2019-02-22T10:46:03.476Z,21.77
2019-02-22T10:47:02.904Z,21.92
2019-02-22T10:48:03.522Z,21.92
2019-02-22T10:49:03.245Z,22.39
2019-02-22T10:50:02.702Z,21.33
2019-02-22T10:51:02.941Z,21.33
2019-02-22T10:52:02.831Z,22.78
2019-02-22T10:53:03.289Z,22.51
2019-02-22T10:54:02.687Z,22.51
2019-02-22T10:55:03.731Z,21.68
2019-02-22T10:56:03.314Z,22.97
2019-02-22T10:57:03.181Z,22.12
2019-02-22T10:58:03.494Z,20.88
2019-02-22T10:59:03.012Z,20.15
2019-02-22T11:00:03.759Z,19.02
2019-02-22T11:01:03.063Z,19.61
2019-02-22T11:02:03.317Z,18.51
2019-02-22T11:03:02.801Z,19.59
2019-02-22T11:04:03.198Z,21.01
2019-02-22T11:05:03.926Z,19.43
2019-02-22T11:06:03.221Z,21.29
2019-02-22T11:07:03.647Z,21.71
2019-02-22T11:08:03.115Z,20.01
2019-02-22T11:09:03.829Z,20.39
2019-02-22T11:10:03.127Z,20.06
2019-02-22T11:11:03.679Z,18.87
2019-02-22T11:12:03.364Z,17.65
2019-02-22T11:13:02.982Z,17.15
2019-02-22T11:14:03.385Z,19.24
2019-02-22T11:15:03.160Z,18.43
2019-02-22T11:16:03.536Z,19.52
2019-02-22T11:17:03.295Z,18.34
2019-02-22T11:18:03.652Z,19.64
2019-02-22T11:19:02.801Z,18.51
2019-02-22T11:20:03.880Z,18.87
2019-02-22T11:21:02.660Z,18.06
2019-02-22T11:22:03.394Z,18.32
2019-02-22T11:23:03.795Z,19.27
2019-02-22T11:24:03.068Z,18.19
2019-02-22T11:25:03.557Z,17.86
2019-02-22T11:26:02.962Z,18.44
2019-02-22T11:27:03.490Z,16.85
2019-02-22T11:28:03.198Z,17.63
2019-02-22T11:29:03.580Z,17.14
2019-02-22T11:30:03.086Z,17.59
2019-02-22T11:31:03.264Z,18.39
2019-02-22T11:32:02.962Z,18.58
2019-02-22T11:33:02.718Z,15.98
2019-02-22T11:34:03.009Z,15.86
2019-02-22T11:35:03.703Z,15.99
2019-02-22T11:36:03.801Z,16.97
2019-02-22T11:37:03.217Z,16.97
2019-02-22T11:38:03.473Z,16.63
2019-02-22T11:39:03.533Z,16.63
2019-02-22T11:40:03.372Z,15.06
2019-02-22T11:41:02.876Z,15.91
2019-02-22T11:42:03.406Z,15.91
2019-02-22T11:43:03.042Z,15.32
2019-02-22T11:44:03.340Z,16.44
2019-02-22T11:45:02.948Z,15.66
2019-02-22T11:46:03.651Z,16.38
2019-02-22T11:47:02.962Z,16.99
2019-02-22T11:48:09.624Z,15.24
2019-02-22T11:49:02.965Z,17.16
2019-02-22T11:50:02.843Z,16.37
2019-02-22T11:51:03.313Z,16.23
2019-02-22T11:52:03.717Z,15.88
2019-02-22T11:53:03.400Z,16.75
2019-02-22T11:54:03.540Z,15.49
2019-02-22T11:55:03.182Z,16.39
2019-02-22T11:56:03.541Z,16.48
2019-02-22T11:57:03.156Z,15.48
2019-02-22T11:58:02.765Z,15.91
2019-02-22T11:59:03.334Z,15.27
2019-02-22T12:00:03.494Z,15.52
2019-02-22T12:01:02.908Z,15.8
2019-02-22T12:02:03.713Z,15.46
2019-02-22T12:03:24.078Z,15.38
2019-02-22T12:04:03.319Z,14.66
2019-02-22T12:05:03.862Z,14.94
2019-02-22T12:06:03.562Z,16.53
2019-02-22T12:07:02.783Z,14.86
2019-02-22T12:08:03.764Z,13.25
2019-02-22T12:09:03.158Z,15.43
2019-02-22T12:10:03.254Z,12.72
2019-02-22T12:11:03.606Z,13.79
2019-02-22T12:12:03.505Z,13.49
2019-02-22T12:13:03.022Z,14.71
2019-02-22T12:14:03.545Z,14.15
2019-02-22T12:15:02.811Z,14.45
2019-02-22T12:16:03.509Z,14.74
2019-02-22T12:17:02.969Z,12.49
2019-02-22T12:18:03.334Z,12.46
2019-02-22T12:19:02.530Z,12.34
2019-02-22T12:20:03.194Z,12.76
2019-02-22T12:21:02.713Z,11.72
2019-02-22T12:22:03.152Z,11.72
2019-02-22T12:23:03.002Z,11.94
2019-02-22T12:24:02.939Z,11.58
2019-02-22T12:25:03.480Z,10.56
2019-02-22T12:26:03.389Z,11.29
2019-02-22T12:27:03.009Z,11.29
2019-02-22T12:28:03.714Z,10.72
2019-02-22T12:29:03.476Z,10.94
2019-02-22T12:30:03.029Z,11.07
2019-02-22T12:31:03.653Z,9.74
2019-02-22T12:32:03.203Z,10.51
2019-02-22T12:33:03.559Z,9.36
2019-02-22T12:34:02.718Z,10.34
2019-02-22T12:35:03.691Z,9.07
2019-02-22T12:36:03.266Z,8.53
2019-02-22T12:37:03.519Z,9.42
2019-02-22T12:38:02.815Z,8.13
2019-02-22T12:39:03.183Z,8.02
2019-02-22T12:40:03.758Z,8.18
2019-02-22T12:41:03.085Z,7.16
2019-02-22T12:42:03.569Z,7.06
2019-02-22T12:43:02.869Z,7.2
2019-02-22T12:44:03.659Z,6.85
2019-02-22T12:45:03.730Z,6.48
2019-02-22T12:46:03.352Z,5.98
2019-02-22T12:47:03.688Z,7.3
2019-02-22T12:48:03.255Z,5.98
2019-02-22T12:49:03.693Z,7.05
2019-02-22T12:50:03.198Z,7.24
2019-02-22T12:51:03.759Z,7.22
2019-02-22T12:52:02.690Z,6.38
2019-02-22T12:53:03.484Z,7.01
2019-02-22T12:54:03.665Z,7.13
2019-02-22T12:55:03.382Z,8.49